sensor_id;sensor_type;location;lat;lon;timestamp;P1;durP1;ratioP1;P2;durP2;ratioP2
14994;SDS011;7593;49.006;8.372;2022-10-16T00:01:40;3.13;;;1.80;;
14994;SDS011;7593;49.006;8.372;2022-10-16T00:04:08;2.13;;;1.75;;
14994;SDS011;7593;49.006;8.372;2022-10-16T00:06:35;3.72;;;3.03;;
14994;SDS011;7593;49.006;8.372;2022-10-16T00:09:02;2.20;;;1.80;;
14994;SDS011;7593;49.006;8.372;2022-10-16T00:11:30;4.28;;;1.88;;
14994;SDS011;7593;49.006;8.372;2022-10-16T00:14:00;6.47;;;2.00;;
14994;SDS011;7593;49.006;8.372;2022-10-16T00:16:28;3.45;;;1.83;;
14994;SDS011;7593;49.006;8.372;2022-10-16T00:18:55;3.25;;;1.70;;
14994;SDS011;7593;49.006;8.372;2022-10-16T00:21:23;2.92;;;1.55;;
14994;SDS011;7593;49.006;8.372;2022-10-16T00:23:52;2.25;;;1.67;;
14994;SDS011;7593;49.006;8.372;2022-10-16T00:26:21;3.00;;;1.48;;
14994;SDS011;7593;49.006;8.372;2022-10-16T00:28:50;4.72;;;2.30;;
14994;SDS011;7593;49.006;8.372;2022-10-16T00:31:18;2.42;;;1.80;;
14994;SDS011;7593;49.006;8.372;2022-10-16T00:33:46;4.97;;;2.35;;
14994;SDS011;7593;49.006;8.372;2022-10-16T00:36:14;2.60;;;1.70;;
14994;SDS011;7593;49.006;8.372;2022-10-16T00:38:43;2.97;;;2.03;;
14994;SDS011;7593;49.006;8.372;2022-10-16T00:41:10;6.35;;;1.98;;
14994;SDS011;7593;49.006;8.372;2022-10-16T00:43:40;2.60;;;1.67;;
14994;SDS011;7593;49.006;8.372;2022-10-16T00:46:12;3.63;;;2.03;;
14994;SDS011;7593;49.006;8.372;2022-10-16T00:48:42;4.28;;;1.90;;
14994;SDS011;7593;49.006;8.372;2022-10-16T00:51:14;5.78;;;1.80;;
14994;SDS011;7593;49.006;8.372;2022-10-16T00:53:43;3.65;;;1.67;;
14994;SDS011;7593;49.006;8.372;2022-10-16T00:56:11;3.50;;;2.08;;
14994;SDS011;7593;49.006;8.372;2022-10-16T00:58:38;2.70;;;1.80;;
14994;SDS011;7593;49.006;8.372;2022-10-16T01:01:04;2.88;;;1.90;;
14994;SDS011;7593;49.006;8.372;2022-10-16T01:03:33;2.47;;;1.70;;
14994;SDS011;7593;49.006;8.372;2022-10-16T01:06:04;4.28;;;2.25;;
14994;SDS011;7593;49.006;8.372;2022-10-16T01:08:47;3.78;;;1.80;;
14994;SDS011;7593;49.006;8.372;2022-10-16T01:11:22;2.97;;;1.80;;
14994;SDS011;7593;49.006;8.372;2022-10-16T01:13:57;4.25;;;1.85;;
14994;SDS011;7593;49.006;8.372;2022-10-16T01:16:29;2.08;;;1.63;;
14994;SDS011;7593;49.006;8.372;2022-10-16T01:19:04;3.45;;;1.60;;
14994;SDS011;7593;49.006;8.372;2022-10-16T01:21:38;3.22;;;1.70;;
14994;SDS011;7593;49.006;8.372;2022-10-16T01:24:11;5.65;;;1.85;;
14994;SDS011;7593;49.006;8.372;2022-10-16T01:27:10;2.50;;;1.60;;
14994;SDS011;7593;49.006;8.372;2022-10-16T01:29:40;4.03;;;1.90;;
14994;SDS011;7593;49.006;8.372;2022-10-16T01:32:15;3.00;;;1.83;;
14994;SDS011;7593;49.006;8.372;2022-10-16T01:34:47;4.43;;;1.70;;
14994;SDS011;7593;49.006;8.372;2022-10-16T01:37:20;3.38;;;1.60;;
14994;SDS011;7593;49.006;8.372;2022-10-16T01:39:55;3.38;;;1.60;;
14994;SDS011;7593;49.006;8.372;2022-10-16T01:42:27;6.15;;;1.75;;
14994;SDS011;7593;49.006;8.372;2022-10-16T01:44:59;1.85;;;1.60;;
14994;SDS011;7593;49.006;8.372;2022-10-16T01:47:27;3.42;;;1.77;;
14994;SDS011;7593;49.006;8.372;2022-10-16T01:49:57;4.40;;;1.73;;
14994;SDS011;7593;49.006;8.372;2022-10-16T01:52:26;6.00;;;2.00;;
14994;SDS011;7593;49.006;8.372;2022-10-16T01:54:55;3.42;;;2.05;;
14994;SDS011;7593;49.006;8.372;2022-10-16T01:57:23;6.93;;;2.20;;
14994;SDS011;7593;49.006;8.372;2022-10-16T01:59:54;2.80;;;2.10;;
14994;SDS011;7593;49.006;8.372;2022-10-16T02:02:24;4.65;;;2.15;;
14994;SDS011;7593;49.006;8.372;2022-10-16T02:04:55;2.28;;;1.75;;
14994;SDS011;7593;49.006;8.372;2022-10-16T02:07:25;2.88;;;1.48;;
14994;SDS011;7593;49.006;8.372;2022-10-16T02:09:51;4.07;;;1.80;;
14994;SDS011;7593;49.006;8.372;2022-10-16T02:12:19;3.05;;;1.98;;
14994;SDS011;7593;49.006;8.372;2022-10-16T02:14:51;5.80;;;2.03;;
14994;SDS011;7593;49.006;8.372;2022-10-16T02:17:20;2.95;;;1.88;;
14994;SDS011;7593;49.006;8.372;2022-10-16T02:19:48;3.95;;;1.70;;
14994;SDS011;7593;49.006;8.372;2022-10-16T02:22:18;2.90;;;2.28;;
14994;SDS011;7593;49.006;8.372;2022-10-16T02:24:50;4.22;;;1.90;;
14994;SDS011;7593;49.006;8.372;2022-10-16T02:27:22;5.22;;;2.03;;
14994;SDS011;7593;49.006;8.372;2022-10-16T02:29:53;3.95;;;1.92;;
14994;SDS011;7593;49.006;8.372;2022-10-16T02:32:27;4.53;;;2.03;;
14994;SDS011;7593;49.006;8.372;2022-10-16T02:34:57;5.15;;;1.75;;
14994;SDS011;7593;49.006;8.372;2022-10-16T02:37:25;5.55;;;1.92;;
14994;SDS011;7593;49.006;8.372;2022-10-16T02:39:53;7.03;;;1.80;;
14994;SDS011;7593;49.006;8.372;2022-10-16T02:42:26;3.35;;;1.85;;
14994;SDS011;7593;49.006;8.372;2022-10-16T02:44:54;2.38;;;1.67;;
14994;SDS011;7593;49.006;8.372;2022-10-16T02:47:21;3.70;;;2.00;;
14994;SDS011;7593;49.006;8.372;2022-10-16T02:49:49;4.05;;;1.77;;
14994;SDS011;7593;49.006;8.372;2022-10-16T02:52:15;5.43;;;1.90;;
14994;SDS011;7593;49.006;8.372;2022-10-16T02:54:42;5.78;;;1.90;;
14994;SDS011;7593;49.006;8.372;2022-10-16T02:57:09;3.65;;;2.17;;
14994;SDS011;7593;49.006;8.372;2022-10-16T02:59:36;3.05;;;1.67;;
14994;SDS011;7593;49.006;8.372;2022-10-16T03:02:03;3.80;;;1.60;;
14994;SDS011;7593;49.006;8.372;2022-10-16T03:04:30;4.00;;;1.88;;
14994;SDS011;7593;49.006;8.372;2022-10-16T03:06:58;2.28;;;1.55;;
14994;SDS011;7593;49.006;8.372;2022-10-16T03:09:25;3.75;;;1.90;;
14994;SDS011;7593;49.006;8.372;2022-10-16T03:11:52;8.18;;;3.70;;
14994;SDS011;7593;49.006;8.372;2022-10-16T03:14:19;5.10;;;1.85;;
14994;SDS011;7593;49.006;8.372;2022-10-16T03:16:46;3.97;;;1.95;;
14994;SDS011;7593;49.006;8.372;2022-10-16T03:19:13;3.35;;;1.90;;
14994;SDS011;7593;49.006;8.372;2022-10-16T03:21:41;4.10;;;1.90;;
14994;SDS011;7593;49.006;8.372;2022-10-16T03:24:10;3.58;;;1.83;;
14994;SDS011;7593;49.006;8.372;2022-10-16T03:26:37;3.60;;;1.65;;
14994;SDS011;7593;49.006;8.372;2022-10-16T03:29:04;4.22;;;1.80;;
14994;SDS011;7593;49.006;8.372;2022-10-16T03:31:31;5.03;;;1.92;;
14994;SDS011;7593;49.006;8.372;2022-10-16T03:33:58;3.10;;;1.90;;
14994;SDS011;7593;49.006;8.372;2022-10-16T03:36:25;3.15;;;1.65;;
14994;SDS011;7593;49.006;8.372;2022-10-16T03:38:52;2.20;;;1.75;;
14994;SDS011;7593;49.006;8.372;2022-10-16T03:41:20;3.97;;;1.90;;
14994;SDS011;7593;49.006;8.372;2022-10-16T03:43:47;4.60;;;1.95;;
14994;SDS011;7593;49.006;8.372;2022-10-16T03:46:14;4.65;;;1.98;;
14994;SDS011;7593;49.006;8.372;2022-10-16T03:48:41;5.65;;;1.90;;
14994;SDS011;7593;49.006;8.372;2022-10-16T03:51:07;4.43;;;2.00;;
14994;SDS011;7593;49.006;8.372;2022-10-16T03:53:34;5.03;;;1.83;;
14994;SDS011;7593;49.006;8.372;2022-10-16T03:56:01;5.20;;;1.95;;
14994;SDS011;7593;49.006;8.372;2022-10-16T03:58:29;4.10;;;1.98;;
14994;SDS011;7593;49.006;8.372;2022-10-16T04:00:56;2.45;;;1.70;;
14994;SDS011;7593;49.006;8.372;2022-10-16T04:03:23;6.18;;;2.08;;
14994;SDS011;7593;49.006;8.372;2022-10-16T04:05:49;6.45;;;2.08;;
14994;SDS011;7593;49.006;8.372;2022-10-16T04:08:16;4.53;;;1.95;;
14994;SDS011;7593;49.006;8.372;2022-10-16T04:10:43;4.68;;;2.20;;
14994;SDS011;7593;49.006;8.372;2022-10-16T04:13:10;3.45;;;1.63;;
14994;SDS011;7593;49.006;8.372;2022-10-16T04:15:39;4.28;;;1.75;;
14994;SDS011;7593;49.006;8.372;2022-10-16T04:18:05;2.70;;;2.05;;
14994;SDS011;7593;49.006;8.372;2022-10-16T04:20:33;3.88;;;1.80;;
14994;SDS011;7593;49.006;8.372;2022-10-16T04:23:00;4.43;;;1.73;;
14994;SDS011;7593;49.006;8.372;2022-10-16T04:25:27;5.88;;;1.98;;
14994;SDS011;7593;49.006;8.372;2022-10-16T04:27:53;4.35;;;1.85;;
14994;SDS011;7593;49.006;8.372;2022-10-16T04:30:20;5.25;;;2.42;;
14994;SDS011;7593;49.006;8.372;2022-10-16T04:32:49;3.20;;;2.08;;
14994;SDS011;7593;49.006;8.372;2022-10-16T04:35:16;3.13;;;2.17;;
14994;SDS011;7593;49.006;8.372;2022-10-16T04:37:44;4.13;;;1.90;;
14994;SDS011;7593;49.006;8.372;2022-10-16T04:40:10;3.88;;;1.98;;
14994;SDS011;7593;49.006;8.372;2022-10-16T04:42:37;4.15;;;2.00;;
14994;SDS011;7593;49.006;8.372;2022-10-16T04:45:05;2.63;;;1.90;;
14994;SDS011;7593;49.006;8.372;2022-10-16T04:47:32;3.47;;;2.03;;
14994;SDS011;7593;49.006;8.372;2022-10-16T04:50:00;2.63;;;2.08;;
14994;SDS011;7593;49.006;8.372;2022-10-16T04:52:27;4.70;;;1.90;;
14994;SDS011;7593;49.006;8.372;2022-10-16T04:54:54;3.20;;;2.03;;
14994;SDS011;7593;49.006;8.372;2022-10-16T04:57:25;5.53;;;2.13;;
14994;SDS011;7593;49.006;8.372;2022-10-16T04:59:52;3.20;;;1.80;;
14994;SDS011;7593;49.006;8.372;2022-10-16T05:02:19;3.55;;;1.75;;
14994;SDS011;7593;49.006;8.372;2022-10-16T05:04:46;4.43;;;2.10;;
14994;SDS011;7593;49.006;8.372;2022-10-16T05:07:14;3.38;;;2.17;;
14994;SDS011;7593;49.006;8.372;2022-10-16T05:09:40;2.67;;;1.92;;
14994;SDS011;7593;49.006;8.372;2022-10-16T05:12:07;4.95;;;2.10;;
14994;SDS011;7593;49.006;8.372;2022-10-16T05:14:34;3.38;;;2.10;;
14994;SDS011;7593;49.006;8.372;2022-10-16T05:17:01;5.65;;;2.08;;
14994;SDS011;7593;49.006;8.372;2022-10-16T05:19:27;3.97;;;2.22;;
14994;SDS011;7593;49.006;8.372;2022-10-16T05:21:54;4.68;;;2.00;;
14994;SDS011;7593;49.006;8.372;2022-10-16T05:24:22;3.28;;;2.10;;
14994;SDS011;7593;49.006;8.372;2022-10-16T05:26:49;3.35;;;1.70;;
14994;SDS011;7593;49.006;8.372;2022-10-16T05:29:16;4.28;;;2.05;;
14994;SDS011;7593;49.006;8.372;2022-10-16T05:31:43;3.95;;;1.90;;
14994;SDS011;7593;49.006;8.372;2022-10-16T05:34:10;4.95;;;2.00;;
14994;SDS011;7593;49.006;8.372;2022-10-16T05:36:36;3.17;;;2.08;;
14994;SDS011;7593;49.006;8.372;2022-10-16T05:39:03;3.80;;;2.42;;
14994;SDS011;7593;49.006;8.372;2022-10-16T05:41:31;6.07;;;2.45;;
14994;SDS011;7593;49.006;8.372;2022-10-16T05:43:58;3.78;;;2.40;;
14994;SDS011;7593;49.006;8.372;2022-10-16T05:46:25;4.35;;;2.28;;
14994;SDS011;7593;49.006;8.372;2022-10-16T05:48:52;4.30;;;2.33;;
14994;SDS011;7593;49.006;8.372;2022-10-16T05:51:19;5.00;;;2.20;;
14994;SDS011;7593;49.006;8.372;2022-10-16T05:53:45;4.15;;;2.10;;
14994;SDS011;7593;49.006;8.372;2022-10-16T05:56:12;3.80;;;2.20;;
14994;SDS011;7593;49.006;8.372;2022-10-16T05:58:40;2.75;;;2.15;;
14994;SDS011;7593;49.006;8.372;2022-10-16T06:01:09;3.97;;;2.50;;
14994;SDS011;7593;49.006;8.372;2022-10-16T06:03:38;5.03;;;2.20;;
14994;SDS011;7593;49.006;8.372;2022-10-16T06:06:08;5.18;;;2.15;;
14994;SDS011;7593;49.006;8.372;2022-10-16T06:08:35;3.63;;;2.15;;
14994;SDS011;7593;49.006;8.372;2022-10-16T06:11:02;4.28;;;1.88;;
14994;SDS011;7593;49.006;8.372;2022-10-16T06:13:29;6.25;;;2.38;;
14994;SDS011;7593;49.006;8.372;2022-10-16T06:15:58;5.55;;;2.05;;
14994;SDS011;7593;49.006;8.372;2022-10-16T06:18:25;3.38;;;2.25;;
14994;SDS011;7593;49.006;8.372;2022-10-16T06:20:52;4.72;;;2.30;;
14994;SDS011;7593;49.006;8.372;2022-10-16T06:23:20;4.43;;;2.15;;
14994;SDS011;7593;49.006;8.372;2022-10-16T06:25:47;4.43;;;2.22;;
14994;SDS011;7593;49.006;8.372;2022-10-16T06:28:14;5.88;;;2.08;;
14994;SDS011;7593;49.006;8.372;2022-10-16T06:30:41;3.88;;;1.88;;
14994;SDS011;7593;49.006;8.372;2022-10-16T06:33:10;4.93;;;2.20;;
14994;SDS011;7593;49.006;8.372;2022-10-16T06:35:37;2.67;;;2.13;;
14994;SDS011;7593;49.006;8.372;2022-10-16T06:38:04;8.32;;;2.20;;
14994;SDS011;7593;49.006;8.372;2022-10-16T06:40:30;4.97;;;2.00;;
14994;SDS011;7593;49.006;8.372;2022-10-16T06:42:57;8.93;;;2.30;;
14994;SDS011;7593;49.006;8.372;2022-10-16T06:45:24;4.93;;;1.92;;
14994;SDS011;7593;49.006;8.372;2022-10-16T06:47:51;4.78;;;2.08;;
14994;SDS011;7593;49.006;8.372;2022-10-16T06:50:19;6.25;;;2.03;;
14994;SDS011;7593;49.006;8.372;2022-10-16T06:52:46;3.17;;;1.77;;
14994;SDS011;7593;49.006;8.372;2022-10-16T06:55:12;5.88;;;1.95;;
14994;SDS011;7593;49.006;8.372;2022-10-16T06:57:39;5.82;;;1.90;;
14994;SDS011;7593;49.006;8.372;2022-10-16T07:00:07;4.90;;;1.90;;
14994;SDS011;7593;49.006;8.372;2022-10-16T07:02:34;5.32;;;1.92;;
14994;SDS011;7593;49.006;8.372;2022-10-16T07:05:01;7.88;;;2.05;;
14994;SDS011;7593;49.006;8.372;2022-10-16T07:07:29;6.28;;;2.10;;
14994;SDS011;7593;49.006;8.372;2022-10-16T07:09:56;7.97;;;2.10;;
14994;SDS011;7593;49.006;8.372;2022-10-16T07:12:22;7.00;;;1.95;;
14994;SDS011;7593;49.006;8.372;2022-10-16T07:14:49;3.25;;;1.55;;
14994;SDS011;7593;49.006;8.372;2022-10-16T07:17:17;6.15;;;2.20;;
14994;SDS011;7593;49.006;8.372;2022-10-16T07:19:44;3.55;;;1.90;;
14994;SDS011;7593;49.006;8.372;2022-10-16T07:22:11;3.63;;;1.70;;
14994;SDS011;7593;49.006;8.372;2022-10-16T07:24:39;5.53;;;1.67;;
14994;SDS011;7593;49.006;8.372;2022-10-16T07:27:06;6.93;;;1.90;;
14994;SDS011;7593;49.006;8.372;2022-10-16T07:29:33;4.95;;;1.98;;
14994;SDS011;7593;49.006;8.372;2022-10-16T07:31:59;9.40;;;3.22;;
14994;SDS011;7593;49.006;8.372;2022-10-16T07:34:28;5.60;;;2.30;;
14994;SDS011;7593;49.006;8.372;2022-10-16T07:36:54;3.63;;;1.90;;
14994;SDS011;7593;49.006;8.372;2022-10-16T07:39:21;2.33;;;1.80;;
14994;SDS011;7593;49.006;8.372;2022-10-16T07:41:49;6.32;;;2.00;;
14994;SDS011;7593;49.006;8.372;2022-10-16T07:44:16;4.28;;;1.83;;
14994;SDS011;7593;49.006;8.372;2022-10-16T07:46:43;4.18;;;2.33;;
14994;SDS011;7593;49.006;8.372;2022-10-16T07:49:10;4.03;;;2.10;;
14994;SDS011;7593;49.006;8.372;2022-10-16T07:51:36;3.75;;;1.77;;
14994;SDS011;7593;49.006;8.372;2022-10-16T07:54:04;4.30;;;2.00;;
14994;SDS011;7593;49.006;8.372;2022-10-16T07:56:31;5.78;;;1.92;;
14994;SDS011;7593;49.006;8.372;2022-10-16T07:58:59;2.90;;;1.92;;
14994;SDS011;7593;49.006;8.372;2022-10-16T08:01:26;3.88;;;1.70;;
14994;SDS011;7593;49.006;8.372;2022-10-16T08:04:03;3.30;;;1.88;;
14994;SDS011;7593;49.006;8.372;2022-10-16T08:06:34;3.58;;;2.08;;
14994;SDS011;7593;49.006;8.372;2022-10-16T08:09:02;2.40;;;1.50;;
14994;SDS011;7593;49.006;8.372;2022-10-16T08:11:29;6.82;;;2.00;;
14994;SDS011;7593;49.006;8.372;2022-10-16T08:13:55;4.22;;;1.75;;
14994;SDS011;7593;49.006;8.372;2022-10-16T08:16:23;6.60;;;1.83;;
14994;SDS011;7593;49.006;8.372;2022-10-16T08:18:50;2.33;;;1.60;;
14994;SDS011;7593;49.006;8.372;2022-10-16T08:21:17;5.40;;;1.75;;
14994;SDS011;7593;49.006;8.372;2022-10-16T08:23:48;4.43;;;1.60;;
14994;SDS011;7593;49.006;8.372;2022-10-16T08:26:14;4.40;;;1.40;;
14994;SDS011;7593;49.006;8.372;2022-10-16T08:28:41;2.65;;;1.70;;
14994;SDS011;7593;49.006;8.372;2022-10-16T08:31:08;4.35;;;1.50;;
14994;SDS011;7593;49.006;8.372;2022-10-16T08:33:38;5.22;;;1.50;;
14994;SDS011;7593;49.006;8.372;2022-10-16T08:36:06;2.30;;;1.45;;
14994;SDS011;7593;49.006;8.372;2022-10-16T08:38:33;4.50;;;1.60;;
14994;SDS011;7593;49.006;8.372;2022-10-16T08:41:03;3.80;;;1.52;;
14994;SDS011;7593;49.006;8.372;2022-10-16T08:43:59;5.43;;;1.67;;
14994;SDS011;7593;49.006;8.372;2022-10-16T08:46:43;3.92;;;1.63;;
14994;SDS011;7593;49.006;8.372;2022-10-16T08:49:17;5.47;;;2.17;;
14994;SDS011;7593;49.006;8.372;2022-10-16T08:51:44;1.73;;;1.50;;
14994;SDS011;7593;49.006;8.372;2022-10-16T08:54:18;5.30;;;1.58;;
14994;SDS011;7593;49.006;8.372;2022-10-16T08:56:53;10.98;;;2.63;;
14994;SDS011;7593;49.006;8.372;2022-10-16T08:59:20;4.10;;;1.50;;
14994;SDS011;7593;49.006;8.372;2022-10-16T09:01:48;3.92;;;1.70;;
14994;SDS011;7593;49.006;8.372;2022-10-16T09:07:18;4.53;;;1.77;;
14994;SDS011;7593;49.006;8.372;2022-10-16T09:12:52;3.05;;;1.55;;
14994;SDS011;7593;49.006;8.372;2022-10-16T09:15:26;5.43;;;1.60;;
14994;SDS011;7593;49.006;8.372;2022-10-16T09:18:00;4.95;;;1.50;;
14994;SDS011;7593;49.006;8.372;2022-10-16T09:20:35;6.10;;;1.83;;
14994;SDS011;7593;49.006;8.372;2022-10-16T09:23:22;2.30;;;1.50;;
14994;SDS011;7593;49.006;8.372;2022-10-16T09:25:52;3.25;;;1.60;;
14994;SDS011;7593;49.006;8.372;2022-10-16T09:28:21;2.90;;;1.73;;
14994;SDS011;7593;49.006;8.372;2022-10-16T09:30:48;4.35;;;1.88;;
14994;SDS011;7593;49.006;8.372;2022-10-16T09:33:15;3.53;;;1.90;;
14994;SDS011;7593;49.006;8.372;2022-10-16T09:35:45;4.10;;;1.95;;
14994;SDS011;7593;49.006;8.372;2022-10-16T09:38:22;5.85;;;2.10;;
14994;SDS011;7593;49.006;8.372;2022-10-16T09:40:50;2.85;;;1.92;;
14994;SDS011;7593;49.006;8.372;2022-10-16T09:43:20;8.18;;;1.83;;
14994;SDS011;7593;49.006;8.372;2022-10-16T09:45:56;4.03;;;1.75;;
14994;SDS011;7593;49.006;8.372;2022-10-16T09:48:25;3.15;;;1.70;;
14994;SDS011;7593;49.006;8.372;2022-10-16T09:50:59;2.80;;;2.05;;
14994;SDS011;7593;49.006;8.372;2022-10-16T09:53:37;5.60;;;2.80;;
14994;SDS011;7593;49.006;8.372;2022-10-16T09:56:06;3.58;;;1.88;;
14994;SDS011;7593;49.006;8.372;2022-10-16T09:58:32;7.32;;;4.25;;
14994;SDS011;7593;49.006;8.372;2022-10-16T10:00:59;5.30;;;2.25;;
14994;SDS011;7593;49.006;8.372;2022-10-16T10:03:33;4.25;;;1.63;;
14994;SDS011;7593;49.006;8.372;2022-10-16T10:06:06;3.63;;;1.83;;
14994;SDS011;7593;49.006;8.372;2022-10-16T10:08:52;3.88;;;1.50;;
14994;SDS011;7593;49.006;8.372;2022-10-16T10:11:47;3.90;;;1.70;;
14994;SDS011;7593;49.006;8.372;2022-10-16T10:14:17;6.70;;;2.00;;
14994;SDS011;7593;49.006;8.372;2022-10-16T10:16:46;8.23;;;2.00;;
14994;SDS011;7593;49.006;8.372;2022-10-16T10:19:15;4.70;;;1.70;;
14994;SDS011;7593;49.006;8.372;2022-10-16T10:21:44;2.70;;;1.63;;
14994;SDS011;7593;49.006;8.372;2022-10-16T10:24:12;6.03;;;1.65;;
14994;SDS011;7593;49.006;8.372;2022-10-16T10:26:41;3.97;;;1.70;;
14994;SDS011;7593;49.006;8.372;2022-10-16T10:29:15;5.32;;;1.50;;
14994;SDS011;7593;49.006;8.372;2022-10-16T10:31:51;3.45;;;1.40;;
14994;SDS011;7593;49.006;8.372;2022-10-16T10:34:35;2.85;;;1.60;;
14994;SDS011;7593;49.006;8.372;2022-10-16T10:37:21;3.55;;;1.70;;
14994;SDS011;7593;49.006;8.372;2022-10-16T10:40:09;2.65;;;1.42;;
14994;SDS011;7593;49.006;8.372;2022-10-16T10:42:44;9.10;;;1.73;;
14994;SDS011;7593;49.006;8.372;2022-10-16T10:45:18;3.72;;;1.45;;
14994;SDS011;7593;49.006;8.372;2022-10-16T10:47:56;3.55;;;1.50;;
14994;SDS011;7593;49.006;8.372;2022-10-16T10:50:33;4.15;;;1.67;;
14994;SDS011;7593;49.006;8.372;2022-10-16T10:53:11;4.53;;;1.67;;
14994;SDS011;7593;49.006;8.372;2022-10-16T10:55:51;5.03;;;1.60;;
14994;SDS011;7593;49.006;8.372;2022-10-16T11:01:26;5.95;;;1.60;;
14994;SDS011;7593;49.006;8.372;2022-10-16T11:04:05;7.22;;;1.70;;
14994;SDS011;7593;49.006;8.372;2022-10-16T11:06:51;4.20;;;1.60;;
14994;SDS011;7593;49.006;8.372;2022-10-16T11:09:23;2.85;;;1.55;;
14994;SDS011;7593;49.006;8.372;2022-10-16T11:11:54;4.40;;;1.77;;
14994;SDS011;7593;49.006;8.372;2022-10-16T11:14:26;3.97;;;1.80;;
14994;SDS011;7593;49.006;8.372;2022-10-16T11:16:57;3.15;;;1.50;;
14994;SDS011;7593;49.006;8.372;2022-10-16T11:19:33;3.50;;;1.63;;
14994;SDS011;7593;49.006;8.372;2022-10-16T11:22:04;4.03;;;1.80;;
14994;SDS011;7593;49.006;8.372;2022-10-16T11:24:40;4.70;;;1.48;;
14994;SDS011;7593;49.006;8.372;2022-10-16T11:27:12;3.40;;;1.60;;
14994;SDS011;7593;49.006;8.372;2022-10-16T11:29:45;2.25;;;1.70;;
14994;SDS011;7593;49.006;8.372;2022-10-16T11:32:19;3.47;;;1.70;;
14994;SDS011;7593;49.006;8.372;2022-10-16T11:34:50;3.25;;;1.67;;
14994;SDS011;7593;49.006;8.372;2022-10-16T11:37:23;2.08;;;1.33;;
14994;SDS011;7593;49.006;8.372;2022-10-16T11:39:58;3.05;;;1.35;;
14994;SDS011;7593;49.006;8.372;2022-10-16T11:42:37;3.10;;;1.30;;
14994;SDS011;7593;49.006;8.372;2022-10-16T11:45:15;1.90;;;1.42;;
14994;SDS011;7593;49.006;8.372;2022-10-16T11:47:54;4.70;;;1.60;;
14994;SDS011;7593;49.006;8.372;2022-10-16T11:50:28;3.72;;;1.58;;
14994;SDS011;7593;49.006;8.372;2022-10-16T11:53:01;2.90;;;1.70;;
14994;SDS011;7593;49.006;8.372;2022-10-16T11:55:36;3.00;;;1.65;;
14994;SDS011;7593;49.006;8.372;2022-10-16T11:58:07;10.65;;;1.85;;
14994;SDS011;7593;49.006;8.372;2022-10-16T12:00:40;2.40;;;1.50;;
14994;SDS011;7593;49.006;8.372;2022-10-16T12:03:15;4.20;;;1.40;;
14994;SDS011;7593;49.006;8.372;2022-10-16T12:05:52;9.60;;;2.30;;
14994;SDS011;7593;49.006;8.372;2022-10-16T12:08:25;5.47;;;1.63;;
14994;SDS011;7593;49.006;8.372;2022-10-16T12:11:05;4.63;;;1.55;;
14994;SDS011;7593;49.006;8.372;2022-10-16T12:13:34;5.20;;;2.00;;
14994;SDS011;7593;49.006;8.372;2022-10-16T12:16:06;6.47;;;1.58;;
14994;SDS011;7593;49.006;8.372;2022-10-16T12:18:48;6.50;;;1.60;;
14994;SDS011;7593;49.006;8.372;2022-10-16T12:21:16;5.32;;;1.90;;
14994;SDS011;7593;49.006;8.372;2022-10-16T12:23:47;5.20;;;1.80;;
14994;SDS011;7593;49.006;8.372;2022-10-16T12:26:24;5.43;;;1.80;;
14994;SDS011;7593;49.006;8.372;2022-10-16T12:28:53;2.88;;;1.40;;
14994;SDS011;7593;49.006;8.372;2022-10-16T12:31:21;3.97;;;1.73;;
14994;SDS011;7593;49.006;8.372;2022-10-16T12:33:54;5.80;;;1.80;;
14994;SDS011;7593;49.006;8.372;2022-10-16T12:36:28;2.38;;;1.77;;
14994;SDS011;7593;49.006;8.372;2022-10-16T12:38:57;7.70;;;1.92;;
14994;SDS011;7593;49.006;8.372;2022-10-16T12:41:26;3.08;;;1.60;;
14994;SDS011;7593;49.006;8.372;2022-10-16T12:43:54;3.20;;;1.40;;
14994;SDS011;7593;49.006;8.372;2022-10-16T12:49:06;2.75;;;1.52;;
14994;SDS011;7593;49.006;8.372;2022-10-16T12:51:46;4.15;;;1.60;;
14994;SDS011;7593;49.006;8.372;2022-10-16T12:54:14;2.85;;;1.77;;
14994;SDS011;7593;49.006;8.372;2022-10-16T12:56:47;5.60;;;1.80;;
14994;SDS011;7593;49.006;8.372;2022-10-16T12:59:24;4.55;;;1.98;;
14994;SDS011;7593;49.006;8.372;2022-10-16T13:02:07;3.67;;;1.60;;
14994;SDS011;7593;49.006;8.372;2022-10-16T13:05:00;4.53;;;1.60;;
14994;SDS011;7593;49.006;8.372;2022-10-16T13:07:42;3.15;;;1.55;;
14994;SDS011;7593;49.006;8.372;2022-10-16T13:10:19;2.75;;;1.73;;
14994;SDS011;7593;49.006;8.372;2022-10-16T13:12:57;5.10;;;1.80;;
14994;SDS011;7593;49.006;8.372;2022-10-16T13:15:39;5.85;;;2.15;;
14994;SDS011;7593;49.006;8.372;2022-10-16T13:18:20;5.45;;;1.80;;
14994;SDS011;7593;49.006;8.372;2022-10-16T13:20:53;3.38;;;1.83;;
14994;SDS011;7593;49.006;8.372;2022-10-16T13:23:29;2.78;;;1.60;;
14994;SDS011;7593;49.006;8.372;2022-10-16T13:26:06;2.28;;;1.80;;
14994;SDS011;7593;49.006;8.372;2022-10-16T13:28:41;3.97;;;1.60;;
14994;SDS011;7593;49.006;8.372;2022-10-16T13:31:10;6.82;;;1.70;;
14994;SDS011;7593;49.006;8.372;2022-10-16T13:33:41;3.13;;;1.75;;
14994;SDS011;7593;49.006;8.372;2022-10-16T13:36:17;5.07;;;1.90;;
14994;SDS011;7593;49.006;8.372;2022-10-16T13:38:46;3.97;;;1.67;;
14994;SDS011;7593;49.006;8.372;2022-10-16T13:41:14;5.90;;;2.10;;
14994;SDS011;7593;49.006;8.372;2022-10-16T13:43:45;8.00;;;2.38;;
14994;SDS011;7593;49.006;8.372;2022-10-16T13:46:14;7.78;;;2.10;;
14994;SDS011;7593;49.006;8.372;2022-10-16T13:48:42;2.85;;;1.88;;
14994;SDS011;7593;49.006;8.372;2022-10-16T13:51:13;4.43;;;1.95;;
14994;SDS011;7593;49.006;8.372;2022-10-16T13:53:41;6.22;;;3.33;;
14994;SDS011;7593;49.006;8.372;2022-10-16T13:56:13;8.77;;;3.85;;
14994;SDS011;7593;49.006;8.372;2022-10-16T13:58:41;9.65;;;3.28;;
14994;SDS011;7593;49.006;8.372;2022-10-16T14:01:24;5.53;;;2.28;;
14994;SDS011;7593;49.006;8.372;2022-10-16T14:03:53;5.40;;;2.85;;
14994;SDS011;7593;49.006;8.372;2022-10-16T14:06:28;6.50;;;2.63;;
14994;SDS011;7593;49.006;8.372;2022-10-16T14:08:56;6.88;;;3.25;;
14994;SDS011;7593;49.006;8.372;2022-10-16T14:11:28;6.63;;;3.10;;
14994;SDS011;7593;49.006;8.372;2022-10-16T14:14:03;8.25;;;3.25;;
14994;SDS011;7593;49.006;8.372;2022-10-16T14:16:31;9.20;;;3.33;;
14994;SDS011;7593;49.006;8.372;2022-10-16T14:19:00;7.55;;;3.40;;
14994;SDS011;7593;49.006;8.372;2022-10-16T14:21:28;4.30;;;2.85;;
14994;SDS011;7593;49.006;8.372;2022-10-16T14:23:57;6.47;;;3.78;;
14994;SDS011;7593;49.006;8.372;2022-10-16T14:26:26;6.63;;;3.20;;
14994;SDS011;7593;49.006;8.372;2022-10-16T14:29:10;5.10;;;3.22;;
14994;SDS011;7593;49.006;8.372;2022-10-16T14:31:39;5.57;;;2.60;;
14994;SDS011;7593;49.006;8.372;2022-10-16T14:36:49;11.25;;;3.35;;
14994;SDS011;7593;49.006;8.372;2022-10-16T14:39:17;5.60;;;1.90;;
14994;SDS011;7593;49.006;8.372;2022-10-16T14:41:47;3.78;;;2.13;;
14994;SDS011;7593;49.006;8.372;2022-10-16T14:44:16;3.63;;;1.83;;
14994;SDS011;7593;49.006;8.372;2022-10-16T14:46:44;3.88;;;1.90;;
14994;SDS011;7593;49.006;8.372;2022-10-16T14:49:16;4.57;;;2.45;;
14994;SDS011;7593;49.006;8.372;2022-10-16T14:51:45;3.88;;;2.30;;
14994;SDS011;7593;49.006;8.372;2022-10-16T14:54:16;5.10;;;2.05;;
14994;SDS011;7593;49.006;8.372;2022-10-16T14:56:45;6.22;;;2.33;;
14994;SDS011;7593;49.006;8.372;2022-10-16T14:59:14;2.58;;;2.00;;
14994;SDS011;7593;49.006;8.372;2022-10-16T15:01:45;3.70;;;2.03;;
14994;SDS011;7593;49.006;8.372;2022-10-16T15:04:12;12.57;;;2.50;;
14994;SDS011;7593;49.006;8.372;2022-10-16T15:06:40;3.30;;;2.00;;
14994;SDS011;7593;49.006;8.372;2022-10-16T15:09:17;2.55;;;1.90;;
14994;SDS011;7593;49.006;8.372;2022-10-16T15:12:39;7.32;;;2.40;;
14994;SDS011;7593;49.006;8.372;2022-10-16T15:15:33;8.43;;;2.50;;
14994;SDS011;7593;49.006;8.372;2022-10-16T15:18:06;10.30;;;2.45;;
14994;SDS011;7593;49.006;8.372;2022-10-16T15:20:39;6.47;;;2.72;;
14994;SDS011;7593;49.006;8.372;2022-10-16T15:23:11;8.23;;;2.40;;
14994;SDS011;7593;49.006;8.372;2022-10-16T15:25:41;6.68;;;2.67;;
14994;SDS011;7593;49.006;8.372;2022-10-16T15:28:11;5.95;;;2.60;;
14994;SDS011;7593;49.006;8.372;2022-10-16T15:30:46;7.38;;;2.80;;
14994;SDS011;7593;49.006;8.372;2022-10-16T15:33:19;9.68;;;3.50;;
14994;SDS011;7593;49.006;8.372;2022-10-16T15:35:48;8.32;;;3.58;;